createdAt,value
2023-02-09T00:01:20.578Z,50.88
2023-02-09T00:03:47.216Z,52.13
2023-02-09T00:06:16.386Z,50.65
2023-02-09T00:08:43.111Z,51.85
2023-02-09T00:11:47.400Z,55.00
2023-02-09T00:14:15.932Z,50.80
2023-02-09T00:16:42.779Z,47.38
2023-02-09T00:19:10.280Z,48.85
2023-02-09T00:21:37.607Z,51.75
2023-02-09T00:24:04.419Z,51.47
2023-02-09T00:26:31.098Z,45.80
2023-02-09T00:28:58.359Z,56.03
2023-02-09T00:31:25.038Z,49.78
2023-02-09T00:33:51.549Z,46.42
2023-02-09T00:36:17.948Z,52.13
2023-02-09T00:38:44.615Z,49.35
2023-02-09T00:41:12.807Z,46.75
2023-02-09T00:43:39.790Z,49.03
2023-02-09T00:46:06.583Z,51.40
2023-02-09T00:48:33.024Z,50.90
2023-02-09T00:50:59.437Z,45.38
2023-02-09T00:53:26.162Z,51.25
2023-02-09T00:55:52.721Z,44.20
2023-02-09T00:58:19.847Z,41.75
2023-02-09T01:00:46.524Z,49.55
2023-02-09T01:03:13.062Z,45.03
2023-02-09T01:05:41.027Z,46.63
2023-02-09T01:08:07.640Z,44.85
2023-02-09T01:10:34.031Z,45.55
2023-02-09T01:13:00.448Z,41.42
2023-02-09T01:15:28.744Z,44.47
2023-02-09T01:17:55.156Z,49.28
2023-02-09T01:20:21.587Z,52.33
2023-02-09T01:22:48.022Z,48.92
2023-02-09T01:25:14.419Z,44.85
2023-02-09T01:27:42.327Z,47.00
2023-02-09T01:30:09.529Z,50.15
2023-02-09T01:32:37.144Z,46.08
2023-02-09T01:35:04.110Z,46.15
2023-02-09T01:37:30.513Z,51.28
2023-02-09T01:39:57.016Z,47.47
2023-02-09T01:42:23.443Z,49.78
2023-02-09T01:44:49.781Z,48.10
2023-02-09T01:47:18.499Z,46.85
2023-02-09T01:49:51.550Z,48.95
2023-02-09T01:52:25.905Z,45.05
2023-02-09T01:54:58.913Z,48.97
2023-02-09T01:57:51.244Z,47.30
2023-02-09T02:00:19.747Z,48.33
2023-02-09T02:02:57.864Z,45.17
2023-02-09T02:05:26.114Z,46.10
2023-02-09T02:08:07.783Z,46.42
2023-02-09T02:10:34.180Z,39.85
2023-02-09T02:13:01.950Z,50.47
2023-02-09T02:15:49.946Z,44.42
2023-02-09T02:18:33.798Z,48.88
2023-02-09T02:21:19.750Z,46.72
2023-02-09T02:32:49.917Z,40.42
2023-02-09T02:35:19.532Z,45.15
2023-02-09T02:38:02.849Z,44.72
2023-02-09T02:40:41.037Z,44.92
2023-02-09T02:43:40.304Z,40.88
2023-02-09T02:46:24.645Z,39.80
2023-02-09T02:49:05.256Z,46.35
2023-02-09T02:51:36.722Z,41.97
2023-02-09T02:54:07.857Z,40.75
2023-02-09T02:56:41.612Z,43.03
2023-02-09T02:59:12.944Z,48.67
2023-02-09T03:02:06.241Z,45.55
2023-02-09T03:04:35.441Z,41.60
2023-02-09T03:07:05.443Z,41.30
2023-02-09T03:09:31.919Z,37.85
2023-02-09T03:12:06.952Z,42.13
2023-02-09T03:15:05.022Z,46.70
2023-02-09T03:17:52.477Z,36.53
2023-02-09T03:20:41.951Z,41.22
2023-02-09T03:23:15.205Z,39.60
2023-02-09T03:25:45.594Z,45.00
2023-02-09T03:28:22.373Z,29.23
2023-02-09T03:30:50.355Z,43.08
2023-02-09T03:33:20.936Z,38.40
2023-02-09T03:35:51.597Z,39.42
2023-02-09T03:38:18.075Z,36.65
2023-02-09T03:40:44.973Z,35.47
2023-02-09T03:43:11.631Z,42.88
2023-02-09T03:45:38.295Z,40.97
2023-02-09T03:48:05.368Z,37.05
2023-02-09T03:50:34.700Z,42.88
2023-02-09T03:53:02.374Z,41.03
2023-02-09T03:55:29.604Z,36.40
2023-02-09T03:57:55.986Z,35.20
2023-02-09T04:00:22.424Z,37.28
2023-02-09T04:02:48.824Z,33.05
2023-02-09T04:05:15.325Z,42.65
2023-02-09T04:07:42.295Z,32.25
2023-02-09T04:10:09.131Z,38.42
2023-02-09T04:12:35.516Z,36.83
2023-02-09T04:15:02.229Z,34.05
2023-02-09T04:17:28.649Z,38.80
2023-02-09T04:19:55.054Z,37.00
2023-02-09T04:22:21.462Z,38.53
2023-02-09T04:24:47.885Z,37.13
2023-02-09T04:27:14.637Z,41.00
2023-02-09T04:29:41.050Z,32.75
2023-02-09T04:32:07.570Z,36.38
2023-02-09T04:34:34.044Z,33.10
2023-02-09T04:37:00.462Z,32.97
2023-02-09T04:39:26.932Z,38.78
2023-02-09T04:41:53.341Z,32.80
2023-02-09T04:44:19.757Z,40.78
2023-02-09T04:46:46.156Z,43.92
2023-02-09T04:49:12.814Z,36.65
2023-02-09T04:51:39.209Z,32.47
2023-02-09T04:54:05.692Z,35.97
2023-02-09T04:56:32.180Z,35.83
2023-02-09T04:59:17.211Z,41.58
2023-02-09T05:01:43.599Z,35.03
2023-02-09T05:04:10.020Z,35.63
2023-02-09T05:06:36.399Z,39.83
2023-02-09T05:09:03.193Z,39.65
2023-02-09T05:11:29.581Z,37.95
2023-02-09T05:13:56.059Z,37.67
2023-02-09T05:16:22.521Z,35.45
2023-02-09T05:18:50.519Z,38.92
2023-02-09T05:21:16.920Z,37.13
2023-02-09T05:23:43.320Z,42.08
2023-02-09T05:26:09.730Z,44.38
2023-02-09T05:28:36.391Z,39.28
2023-02-09T05:31:02.986Z,37.80
2023-02-09T05:33:29.457Z,39.75
2023-02-09T05:35:55.965Z,40.55
2023-02-09T05:38:22.861Z,41.40
2023-02-09T05:40:49.767Z,41.60
2023-02-09T05:43:16.351Z,41.20
2023-02-09T05:45:43.706Z,36.65
2023-02-09T05:48:10.123Z,37.63
2023-02-09T05:50:36.548Z,39.33
2023-02-09T05:53:07.074Z,39.27
2023-02-09T05:55:33.472Z,38.90
2023-02-09T05:57:59.881Z,43.78
2023-02-09T06:00:27.114Z,39.47
2023-02-09T06:02:53.522Z,35.58
2023-02-09T06:05:21.870Z,42.70
2023-02-09T06:07:48.778Z,41.10
2023-02-09T06:10:16.066Z,41.42
2023-02-09T06:12:42.445Z,33.45
2023-02-09T06:15:10.439Z,41.47
2023-02-09T06:17:37.409Z,38.42
2023-02-09T06:20:04.174Z,39.65
2023-02-09T06:22:31.743Z,41.92
2023-02-09T06:24:58.160Z,36.80
2023-02-09T06:27:24.552Z,43.53
2023-02-09T06:29:50.973Z,44.58
2023-02-09T06:32:17.498Z,38.28
2023-02-09T06:34:43.941Z,44.58
2023-02-09T06:37:10.338Z,41.55
2023-02-09T06:39:36.755Z,37.88
2023-02-09T06:42:03.223Z,36.42
2023-02-09T06:44:29.631Z,41.08
2023-02-09T06:46:56.061Z,41.67
2023-02-09T06:49:23.953Z,44.63
2023-02-09T06:51:50.677Z,47.95
2023-02-09T06:54:17.163Z,44.38
2023-02-09T06:56:43.554Z,38.38
2023-02-09T06:59:09.952Z,42.67
2023-02-09T07:01:37.327Z,42.30
2023-02-09T07:04:03.836Z,40.17
2023-02-09T07:06:30.298Z,42.10
2023-02-09T07:08:56.728Z,41.17
2023-02-09T07:11:23.172Z,36.50
2023-02-09T07:13:49.561Z,38.67
2023-02-09T07:16:16.085Z,44.70
2023-02-09T07:18:43.126Z,43.47
2023-02-09T07:21:19.864Z,44.70
2023-02-09T07:23:47.373Z,36.78
2023-02-09T07:26:16.290Z,37.55
2023-02-09T07:28:43.076Z,42.80
2023-02-09T07:31:13.106Z,48.08
2023-02-09T07:33:39.758Z,40.57
2023-02-09T07:36:11.150Z,38.92
2023-02-09T07:38:38.868Z,45.78
2023-02-09T07:41:07.472Z,37.50
2023-02-09T07:43:34.774Z,38.85
2023-02-09T07:46:03.561Z,39.28
2023-02-09T07:48:30.643Z,39.13
2023-02-09T07:50:57.359Z,41.92
2023-02-09T07:53:24.001Z,39.53
2023-02-09T07:55:50.451Z,42.85
2023-02-09T07:58:18.232Z,45.38
2023-02-09T08:00:46.360Z,40.83
2023-02-09T08:03:14.678Z,39.97
2023-02-09T08:06:08.202Z,41.50
2023-02-09T08:08:34.582Z,39.72
2023-02-09T08:11:01.444Z,40.03
2023-02-09T08:13:31.328Z,38.55
2023-02-09T08:16:02.876Z,42.33
2023-02-09T08:18:33.472Z,36.10
2023-02-09T08:21:00.135Z,40.83
2023-02-09T08:23:33.919Z,35.08
2023-02-09T08:26:06.140Z,41.10
2023-02-09T08:28:43.663Z,39.80
2023-02-09T08:31:12.928Z,34.25
2023-02-09T08:33:39.777Z,37.00
2023-02-09T08:36:06.650Z,33.80
2023-02-09T08:38:34.647Z,37.05
2023-02-09T08:41:09.026Z,32.70
2023-02-09T08:43:35.506Z,34.42
2023-02-09T08:46:07.631Z,29.17
2023-02-09T08:48:36.015Z,28.83
2023-02-09T08:51:02.721Z,26.83
2023-02-09T08:53:29.361Z,32.83
2023-02-09T08:55:55.790Z,33.83
2023-02-09T08:58:22.245Z,32.33
2023-02-09T09:00:48.690Z,29.08
2023-02-09T09:03:15.266Z,32.35
2023-02-09T09:05:41.813Z,28.33
2023-02-09T09:08:10.522Z,32.42
2023-02-09T09:10:37.145Z,33.22
2023-02-09T09:13:03.545Z,27.67
2023-02-09T09:15:29.945Z,30.77
2023-02-09T09:17:56.339Z,28.77
2023-02-09T09:20:22.723Z,26.88
2023-02-09T09:22:49.107Z,31.23
2023-02-09T09:25:15.561Z,30.45
2023-02-09T09:27:41.961Z,29.05
2023-02-09T09:30:08.889Z,29.58
2023-02-09T09:32:35.404Z,30.73
2023-02-09T09:35:03.395Z,31.85
2023-02-09T09:37:29.787Z,35.42
2023-02-09T09:39:56.182Z,28.15
2023-02-09T09:42:31.774Z,29.38
2023-02-09T09:44:58.238Z,29.95
2023-02-09T09:47:39.915Z,30.98
2023-02-09T09:50:22.178Z,27.23
2023-02-09T09:52:55.383Z,29.60
2023-02-09T09:55:28.311Z,25.77
2023-02-09T09:57:58.312Z,25.27
2023-02-09T10:00:33.467Z,29.65
2023-02-09T10:02:59.868Z,26.50
2023-02-09T10:05:28.729Z,25.52
2023-02-09T10:08:02.793Z,29.50
2023-02-09T10:10:57.077Z,24.42
2023-02-09T10:13:44.507Z,26.92
2023-02-09T10:16:30.565Z,24.85
2023-02-09T10:19:06.732Z,22.73
2023-02-09T10:21:36.001Z,25.27
2023-02-09T10:24:02.362Z,22.38
2023-02-09T10:26:35.021Z,26.67
2023-02-09T10:29:13.389Z,23.38
2023-02-09T10:31:54.883Z,24.65
2023-02-09T10:34:30.026Z,22.63
2023-02-09T10:37:35.419Z,26.15
2023-02-09T10:40:15.018Z,25.25
2023-02-09T10:42:54.739Z,26.08
2023-02-09T10:45:40.524Z,23.60
2023-02-09T10:48:18.940Z,22.10
2023-02-09T10:50:57.579Z,19.40
2023-02-09T10:53:28.940Z,22.48
2023-02-09T10:56:17.672Z,22.70
2023-02-09T10:59:03.333Z,24.30
2023-02-09T11:01:38.962Z,20.70
2023-02-09T11:04:27.201Z,21.17
2023-02-09T11:07:02.792Z,21.02
2023-02-09T11:09:57.066Z,23.25
2023-02-09T11:12:24.673Z,20.73
2023-02-09T11:14:51.083Z,31.27
2023-02-09T11:17:36.548Z,19.20
2023-02-09T11:20:23.271Z,21.77
2023-02-09T11:23:07.206Z,24.27
2023-02-09T11:25:38.543Z,24.67
2023-02-09T11:28:46.903Z,21.08
2023-02-09T11:31:51.773Z,23.25
2023-02-09T11:34:42.188Z,25.83
2023-02-09T11:37:55.372Z,19.37
2023-02-09T11:40:32.623Z,21.70
2023-02-09T11:43:10.406Z,19.10
2023-02-09T11:45:42.886Z,25.90
2023-02-09T11:48:27.797Z,22.23
2023-02-09T11:51:06.301Z,23.58
2023-02-09T11:54:00.638Z,24.63
2023-02-09T11:56:28.615Z,23.90
2023-02-09T11:59:03.524Z,19.48
2023-02-09T12:01:39.919Z,22.48
2023-02-09T12:04:22.548Z,20.45
2023-02-09T12:06:53.260Z,25.10
2023-02-09T12:09:37.615Z,18.77
2023-02-09T12:12:10.059Z,19.40
2023-02-09T12:15:03.852Z,19.35
2023-02-09T12:17:54.670Z,18.13
2023-02-09T12:20:23.595Z,19.65
2023-02-09T12:23:01.151Z,19.60
2023-02-09T12:25:53.061Z,16.77
2023-02-09T12:28:31.802Z,24.30
2023-02-09T12:30:58.318Z,20.60
2023-02-09T12:33:24.718Z,18.65
2023-02-09T12:36:27.091Z,20.55
2023-02-09T12:38:57.103Z,20.55
2023-02-09T12:41:51.640Z,19.48
2023-02-09T12:44:19.293Z,19.75
2023-02-09T12:46:51.372Z,22.65
2023-02-09T12:49:32.258Z,21.88
2023-02-09T12:52:01.513Z,15.82
2023-02-09T12:54:32.605Z,15.93
2023-02-09T12:57:17.341Z,18.83
2023-02-09T12:59:49.613Z,20.50
2023-02-09T13:02:29.262Z,18.25
2023-02-09T13:05:03.792Z,21.00
2023-02-09T13:07:50.393Z,16.40
2023-02-09T13:10:32.377Z,17.67
2023-02-09T13:13:06.878Z,15.07
2023-02-09T13:16:01.321Z,19.73
2023-02-09T13:18:48.184Z,19.27
2023-02-09T13:21:17.471Z,20.95
2023-02-09T13:24:02.205Z,18.40
2023-02-09T13:26:32.602Z,19.38
2023-02-09T13:29:19.728Z,18.98
2023-02-09T13:31:58.045Z,23.95
2023-02-09T13:34:52.065Z,21.98
2023-02-09T13:37:44.884Z,19.70
2023-02-09T13:40:30.902Z,18.35
2023-02-09T13:43:12.378Z,22.30
2023-02-09T13:45:50.221Z,19.25
2023-02-09T13:48:40.572Z,18.55
2023-02-09T13:51:19.011Z,16.83
2023-02-09T13:54:00.052Z,17.95
2023-02-09T13:56:27.011Z,19.55
2023-02-09T13:58:53.998Z,19.52
2023-02-09T14:01:28.622Z,16.85
2023-02-09T14:04:06.615Z,16.70
2023-02-09T14:06:43.595Z,18.05
2023-02-09T14:09:15.876Z,18.92
2023-02-09T14:11:57.077Z,20.77
2023-02-09T14:17:24.403Z,16.17
2023-02-09T14:19:52.326Z,17.77
2023-02-09T14:22:45.123Z,16.88
2023-02-09T14:25:14.576Z,17.85
2023-02-09T14:27:45.810Z,18.50
2023-02-09T14:30:26.966Z,21.13
2023-02-09T14:32:56.854Z,17.02
2023-02-09T14:35:28.780Z,16.33
2023-02-09T14:37:58.837Z,17.25
2023-02-09T14:40:28.040Z,18.17
2023-02-09T14:43:10.654Z,15.55
2023-02-09T14:45:43.353Z,19.90
2023-02-09T14:48:27.364Z,16.27
2023-02-09T14:50:57.563Z,16.65
2023-02-09T14:53:27.859Z,16.40
2023-02-09T14:55:54.876Z,20.95
2023-02-09T14:58:25.103Z,17.38
2023-02-09T15:00:53.755Z,12.97
2023-02-09T15:03:20.207Z,17.55
2023-02-09T15:05:48.707Z,14.15
2023-02-09T15:08:17.817Z,16.80
2023-02-09T15:10:55.392Z,14.38
2023-02-09T15:13:21.854Z,17.23
2023-02-09T15:15:48.862Z,14.48
2023-02-09T15:18:24.902Z,16.50
2023-02-09T15:20:51.570Z,18.10
2023-02-09T15:23:18.268Z,19.52
2023-02-09T15:25:45.438Z,15.50
2023-02-09T15:28:32.097Z,17.00
2023-02-09T15:30:59.204Z,15.13
2023-02-09T15:33:27.129Z,15.02
2023-02-09T15:35:53.566Z,16.35
2023-02-09T15:38:20.527Z,14.98
2023-02-09T15:41:07.913Z,18.77
2023-02-09T15:43:53.219Z,18.05
2023-02-09T15:46:38.330Z,14.95
2023-02-09T15:49:05.701Z,17.40
2023-02-09T15:51:36.562Z,18.30
2023-02-09T15:54:12.342Z,18.65
2023-02-09T15:56:38.840Z,21.52
2023-02-09T15:59:05.665Z,19.05
2023-02-09T16:01:35.736Z,15.75
2023-02-09T16:04:13.376Z,20.38
2023-02-09T16:06:43.986Z,21.02
2023-02-09T16:09:17.919Z,17.65
2023-02-09T16:11:44.381Z,20.67
2023-02-09T16:14:16.508Z,19.83
2023-02-09T16:16:44.669Z,19.70
2023-02-09T16:19:11.226Z,19.30
2023-02-09T16:21:38.493Z,18.15
2023-02-09T16:24:06.816Z,19.60
2023-02-09T16:26:34.427Z,24.75
2023-02-09T16:29:00.838Z,22.48
2023-02-09T16:31:27.392Z,19.25
2023-02-09T16:33:53.853Z,19.73
2023-02-09T16:36:23.767Z,15.40
2023-02-09T16:38:50.518Z,19.75
2023-02-09T16:41:37.368Z,17.63
2023-02-09T16:44:25.235Z,20.58
2023-02-09T16:46:55.114Z,17.95
2023-02-09T16:49:30.439Z,19.90
2023-02-09T16:52:00.531Z,21.98
2023-02-09T16:54:29.547Z,18.20
2023-02-09T16:56:56.542Z,21.90
2023-02-09T16:59:22.979Z,17.88
2023-02-09T17:01:49.438Z,16.45
2023-02-09T17:04:15.983Z,20.17
2023-02-09T17:06:42.494Z,18.70
2023-02-09T17:09:15.601Z,21.85
2023-02-09T17:11:42.508Z,20.98
2023-02-09T17:14:08.937Z,19.05
2023-02-09T17:16:38.407Z,20.83
2023-02-09T17:19:12.996Z,18.30
2023-02-09T17:21:40.275Z,20.25
2023-02-09T17:24:13.067Z,19.60
2023-02-09T17:26:40.468Z,20.05
2023-02-09T17:29:07.282Z,19.30
2023-02-09T17:31:50.688Z,21.10
2023-02-09T17:34:18.696Z,19.35
2023-02-09T17:36:45.122Z,26.77
2023-02-09T17:39:11.752Z,20.85
2023-02-09T17:41:44.478Z,20.80
2023-02-09T17:44:29.002Z,24.58
2023-02-09T17:47:05.929Z,23.27
2023-02-09T17:49:33.168Z,21.05
2023-02-09T17:51:59.601Z,20.48
2023-02-09T17:54:27.704Z,19.95
2023-02-09T17:56:54.106Z,24.67
2023-02-09T17:59:21.251Z,21.27
2023-02-09T18:01:55.044Z,23.95
2023-02-09T18:04:26.738Z,18.80
2023-02-09T18:06:53.355Z,21.17
2023-02-09T18:09:19.958Z,19.83
2023-02-09T18:11:46.300Z,21.10
2023-02-09T18:14:16.455Z,20.38
2023-02-09T18:16:43.418Z,22.80
2023-02-09T18:19:11.062Z,21.30
2023-02-09T18:21:39.057Z,24.55
2023-02-09T18:24:06.308Z,18.83
2023-02-09T18:26:33.876Z,23.25
2023-02-09T18:29:00.308Z,20.52
2023-02-09T18:31:26.754Z,18.40
2023-02-09T18:33:54.080Z,23.08
2023-02-09T18:36:20.724Z,29.05
2023-02-09T18:38:48.126Z,23.13
2023-02-09T18:41:14.942Z,23.60
2023-02-09T18:43:41.357Z,21.77
2023-02-09T18:46:08.017Z,21.27
2023-02-09T18:48:34.570Z,22.05
2023-02-09T18:51:00.955Z,22.83
2023-02-09T18:53:27.366Z,25.38
2023-02-09T18:55:53.761Z,24.33
2023-02-09T18:58:20.346Z,25.05
2023-02-09T19:00:46.880Z,23.88
2023-02-09T19:03:13.774Z,26.05
2023-02-09T19:05:40.640Z,24.77
2023-02-09T19:08:07.409Z,26.00
2023-02-09T19:10:35.978Z,24.58
2023-02-09T19:13:03.803Z,31.33
2023-02-09T19:15:32.692Z,25.05
2023-02-09T19:17:59.140Z,27.90
2023-02-09T19:20:27.072Z,25.20
2023-02-09T19:22:54.267Z,24.30
2023-02-09T19:25:22.755Z,30.60
2023-02-09T19:27:49.508Z,28.08
2023-02-09T19:30:21.357Z,23.45
2023-02-09T19:32:47.767Z,27.98
2023-02-09T19:35:14.608Z,29.60
2023-02-09T19:37:41.923Z,25.85
2023-02-09T19:40:20.653Z,23.98
2023-02-09T19:42:49.814Z,29.45
2023-02-09T19:45:16.312Z,29.10
2023-02-09T19:47:42.769Z,30.15
2023-02-09T19:50:10.380Z,26.23
2023-02-09T19:52:38.245Z,31.48
2023-02-09T19:55:05.024Z,24.98
2023-02-09T19:57:31.543Z,31.40
2023-02-09T19:59:57.970Z,30.90
2023-02-09T20:02:24.364Z,27.20
2023-02-09T20:04:50.753Z,23.45
2023-02-09T20:07:17.165Z,24.83
2023-02-09T20:09:43.561Z,27.45
2023-02-09T20:12:09.969Z,29.33
2023-02-09T20:14:36.386Z,31.50
2023-02-09T20:17:02.779Z,26.55
2023-02-09T20:19:29.473Z,27.35
2023-02-09T20:21:55.868Z,28.98
2023-02-09T20:24:23.471Z,28.75
2023-02-09T20:26:49.895Z,27.45
2023-02-09T20:29:16.733Z,32.10
2023-02-09T20:31:43.858Z,31.10
2023-02-09T20:34:13.454Z,30.80
2023-02-09T20:36:42.251Z,34.95
2023-02-09T20:39:15.934Z,32.40
2023-02-09T20:42:04.504Z,31.75
2023-02-09T20:45:09.859Z,27.95
2023-02-09T20:47:36.261Z,35.05
2023-02-09T20:50:03.165Z,30.83
2023-02-09T20:52:29.933Z,33.30
2023-02-09T20:54:56.818Z,28.35
2023-02-09T20:57:29.230Z,29.85
2023-02-09T20:59:59.715Z,31.40
2023-02-09T21:02:27.036Z,23.55
2023-02-09T21:04:57.179Z,27.95
2023-02-09T21:07:25.072Z,23.92
2023-02-09T21:09:53.963Z,31.92
2023-02-09T21:12:20.848Z,30.60
2023-02-09T21:14:47.684Z,32.92
2023-02-09T21:17:14.345Z,26.88
2023-02-09T21:19:40.785Z,29.40
2023-02-09T21:22:07.395Z,25.23
2023-02-09T21:24:33.995Z,31.83
2023-02-09T21:27:00.775Z,27.00
2023-02-09T21:29:31.105Z,28.13
2023-02-09T21:32:01.438Z,28.77
2023-02-09T21:34:28.156Z,31.25
2023-02-09T21:36:54.568Z,26.98
2023-02-09T21:39:20.968Z,31.00
2023-02-09T21:42:05.841Z,29.00
2023-02-09T21:44:32.296Z,28.42
2023-02-09T21:47:00.403Z,32.55
2023-02-09T21:49:26.956Z,35.30
2023-02-09T21:51:53.340Z,28.27
2023-02-09T21:54:19.755Z,30.80
2023-02-09T21:56:46.180Z,29.98
2023-02-09T21:59:12.569Z,37.22
2023-02-09T22:01:39.543Z,24.48
2023-02-09T22:04:06.050Z,29.30
2023-02-09T22:06:32.472Z,26.52
2023-02-09T22:09:02.468Z,28.73
2023-02-09T22:11:28.929Z,29.05
2023-02-09T22:13:55.353Z,27.05
2023-02-09T22:16:23.750Z,31.30
2023-02-09T22:18:50.784Z,27.48
2023-02-09T22:21:18.061Z,30.25
2023-02-09T22:23:44.479Z,29.15
2023-02-09T22:26:13.694Z,27.52
2023-02-09T22:28:41.121Z,27.40
2023-02-09T22:31:10.457Z,26.05
2023-02-09T22:33:37.040Z,29.98
2023-02-09T22:36:10.713Z,31.85
2023-02-09T22:38:37.426Z,29.13
2023-02-09T22:41:05.730Z,28.35
2023-02-09T22:43:32.213Z,29.83
2023-02-09T22:45:58.874Z,29.90
2023-02-09T22:48:25.375Z,28.92
2023-02-09T22:50:52.002Z,27.67
2023-02-09T22:53:18.386Z,29.75
2023-02-09T22:55:48.078Z,37.17
2023-02-09T22:58:14.866Z,27.38
2023-02-09T23:00:41.284Z,28.35
2023-02-09T23:03:07.673Z,28.10
2023-02-09T23:05:34.459Z,25.38
2023-02-09T23:08:00.962Z,27.60
2023-02-09T23:10:27.403Z,28.65
2023-02-09T23:12:53.805Z,31.88
2023-02-09T23:15:20.593Z,27.17
2023-02-09T23:17:46.999Z,33.60
2023-02-09T23:20:13.387Z,27.75
2023-02-09T23:22:39.984Z,32.28
2023-02-09T23:25:06.763Z,28.25
2023-02-09T23:27:33.158Z,27.55
2023-02-09T23:29:59.550Z,31.27
2023-02-09T23:32:25.953Z,28.73
2023-02-09T23:34:52.361Z,26.60
2023-02-09T23:37:36.108Z,30.42
2023-02-09T23:40:03.545Z,30.42
2023-02-09T23:42:29.962Z,30.65
2023-02-09T23:44:56.419Z,28.40
2023-02-09T23:47:22.806Z,28.40
2023-02-09T23:49:50.073Z,30.23
2023-02-09T23:52:16.465Z,28.08
2023-02-09T23:54:42.867Z,32.65
2023-02-09T23:57:09.290Z,30.98
2023-02-09T23:59:35.701Z,33.88
